• Join FlightAware (Why Join?)
  • Login
  • US Flag 
03:17AM EDT


 

Airport Tracker/Info


-or-


 

Live Flight TrackerFlight Track Log ✈ N244A ✈ 03-Mar-2014 ✈ KFHB - KHPN

Flight Track Log - Related Links

Times and Time Zones

All times are in EST time to prevent confusion due to time zone crossing. See the N244A flight status page for this flight to view local times or setup timezone preferences in your user account.

Time Position Orientation Groundspeed Altitude Reporting Facility
EST Latitude Longitude Course Direction KTS MPH feet Rate Location/Type
06:32PM 30.6619 -81.5017 339° North 194 223 1,100  Level Jacksonville Center
06:33PM 30.7161 -81.4861 14° North 239 275 3,000 1,260 Climbing Jacksonville Center
06:35PM 30.7611 -81.4058 57° Northeast 283 326 3,900 1,800 Climbing Jacksonville Center
06:36PM 30.8081 -81.3203 57° Northeast 304 350 7,000 3,240 Climbing Jacksonville Center
06:37PM 30.8697 -81.2517 44° Northeast 304 350 10,400 2,640 Climbing Jacksonville Center
06:38PM 30.9608 -81.1967 27° Northeast 317 365 12,300 2,640 Climbing Jacksonville Center
06:39PM 31.0439 -81.1492 26° Northeast 343 395 15,700 3,120 Climbing Jacksonville Center
06:40PM 31.1328 -81.0942 28° Northeast 350 403 18,600 2,400 Climbing Jacksonville Center
06:41PM 31.2286 -81.0778 North 340 391 20,600 1,860 Climbing Jacksonville Center
06:42PM 31.3189 -81.1100 343° North 330 380 22,400 2,220 Climbing Jacksonville Center
06:43PM 31.4300 -81.1444 345° North 352 405 25,100 2,700 Climbing Jacksonville Center
06:44PM 31.5200 -81.1669 348° North 360 414 27,800 2,220 Climbing Jacksonville Center
06:45PM 31.6369 -81.1650 North 371 427 29,600 1,200 Climbing Jacksonville Center
06:46PM 31.7494 -81.1361 12° North 411 473 30,300 900 Climbing Jacksonville Center
06:47PM 31.8597 -81.1094 12° North 430 495 31,400 1,260 Climbing Jacksonville Center
06:48PM 31.9931 -81.0897 North 437 503 32,900 780 Climbing Jacksonville Center
06:49PM 32.1006 -81.0311 25° Northeast 453 521 33,000 180 Climbing Jacksonville Center
06:50PM 32.2239 -80.9058 41° Northeast 512 589 33,300 1,080 Climbing Jacksonville Center
06:51PM 32.3247 -80.8028 41° Northeast 528 608 35,200 780 Climbing Jacksonville Center
06:52PM 32.4456 -80.6747 42° Northeast 534 615 34,900 -120 Descending Jacksonville Center
06:53PM 32.5625 -80.5486 42° Northeast 542 624 35,000  Climbing Jacksonville Center
06:54PM 32.6811 -80.4194 42° Northeast 566 651 35,000  Level Jacksonville Center
06:55PM 32.7975 -80.2928 42° Northeast 566 651 35,000  Level Jacksonville Center
06:56PM 32.9158 -80.1656 42° Northeast 566 651 35,000  Level Jacksonville Center
06:57PM 33.0361 -80.0381 42° Northeast 571 657 35,000  Level Jacksonville Center
06:58PM 33.1442 -79.9231 42° Northeast 571 657 35,000  Level Jacksonville Center
06:59PM 33.2600 -79.8000 42° Northeast 571 657 35,000  Level Jacksonville Center
07:00PM 33.3758 -79.6742 42° Northeast 571 657 35,000  Level Jacksonville Center
07:01PM 33.4978 -79.5425 42° Northeast 577 664 35,000  Level Jacksonville Center
07:02PM 33.6153 -79.4133 42° Northeast 577 664 35,000  Level Jacksonville Center
07:03PM 33.7267 -79.2917 42° Northeast 567 652 35,000  Level Jacksonville Center
07:04PM 33.8458 -79.1619 42° Northeast 562 647 35,000  Level Jacksonville Center
07:05PM 34.0372 -78.9447 43° Northeast 578 665 35,000  Level Washington Center
07:06PM 34.1597 -78.8169 41° Northeast 578 665 35,000  Level Washington Center
07:07PM 34.2800 -78.6808 43° Northeast 578 665 35,000  Level Washington Center
07:08PM 34.4000 -78.5544 41° Northeast 578 665 35,000  Level Washington Center
07:09PM 34.5283 -78.4306 38° Northeast 578 665 35,000  Level Washington Center
07:10PM 34.6583 -78.3114 37° Northeast 578 665 35,000  Level Washington Center
07:11PM 34.7919 -78.2122 31° Northeast 573 659 35,000  Level Washington Center
07:12PM 34.9364 -78.0925 34° Northeast 573 659 35,000  Level Washington Center
07:13PM 35.0722 -77.9800 34° Northeast 573 659 35,000  Level Washington Center
07:14PM 35.1953 -77.8847 32° Northeast 578 665 35,000  Level Washington Center
07:15PM 35.3286 -77.7764 34° Northeast 578 665 35,000  Level Washington Center
07:16PM 35.4642 -77.6628 34° Northeast 585 673 35,000  Level Washington Center
07:17PM 35.5997 -77.5539 33° Northeast 585 673 35,000  Level Washington Center
07:18PM 35.7328 -77.4444 34° Northeast 580 667 35,000  Level Washington Center
07:19PM 35.8658 -77.3350 34° Northeast 580 667 35,000  Level Washington Center
07:20PM 36.0031 -77.2250 33° Northeast 580 667 35,000  Level Washington Center
07:21PM 36.1444 -77.1044 35° Northeast 574 661 35,000  Level Washington Center
07:22PM 36.2750 -76.9936 34° Northeast 567 652 35,000  Level Washington Center
07:23PM 36.4058 -76.8850 34° Northeast 567 652 35,000  Level Washington Center
07:24PM 36.5108 -76.8014 33° Northeast 567 652 35,000  Level Washington Center
07:25PM 36.6539 -76.6794 34° Northeast 561 646 35,000  Level Washington Center
07:26PM 36.7822 -76.5669 35° Northeast 561 646 35,000  Level Washington Center
07:27PM 36.9122 -76.4569 34° Northeast 566 651 35,000  Level Washington Center
07:28PM 37.0425 -76.3464 34° Northeast 566 651 35,000  Level Washington Center
07:29PM 37.1725 -76.2331 35° Northeast 566 651 35,000  Level Washington Center
07:30PM 37.3086 -76.1244 32° Northeast 574 661 35,000  Level Washington Center
07:31PM 37.4361 -76.0131 35° Northeast 574 661 35,000  Level Washington Center
07:32PM 37.5639 -75.9036 34° Northeast 564 649 35,000  Level Washington Center
07:33PM 37.6933 -75.7886 35° Northeast 559 643 35,000  Level Washington Center
07:34PM 37.8247 -75.6733 35° Northeast 559 643 35,000  Level Washington Center
07:35PM 37.9542 -75.5603 35° Northeast 564 649 35,000  Level Washington Center
07:37PM 38.2231 -75.3564 26° Northeast 559 643 35,000  Level Washington Center
07:38PM 38.3750 -75.2658 25° Northeast 548 631 35,000  Level Washington Center
07:39PM 38.5144 -75.1806 26° Northeast 548 631 35,000  Level Washington Center
07:40PM 38.6536 -75.0892 27° Northeast 548 631 35,000  Level Washington Center
07:41PM 38.7908 -74.9978 27° Northeast 548 631 35,000  Level Washington Center
07:42PM 38.9300 -74.9086 26° Northeast 548 631 35,000  Level Washington Center
07:43PM 39.0669 -74.8217 26° Northeast 548 631 35,000  Level Washington Center
07:44PM 39.1956 -74.7025 36° Northeast 554 638 35,000 -840 Level Washington Center
07:45PM 39.3153 -74.5750 39° Northeast 554 638 33,400 -3,300 Descending Washington Center
07:47PM 39.4953 -74.3839 39° Northeast 545 627 26,400 -3,540 Descending New York Center
07:48PM 39.6058 -74.2678 39° Northeast 521 600 24,000 -1,260 Descending New York Center
07:49PM 39.7408 -74.1253 39° Northeast 530 610 23,800 -540 Descending New York Center
07:50PM 39.8522 -74.0067 39° Northeast 521 600 23,000 -1,680 Descending New York Center
07:51PM 39.9542 -73.8983 39° Northeast 481 554 20,400 -2,880 Descending New York Center
07:52PM 40.0647 -73.7806 39° Northeast 471 542 17,200 -2,160 Descending New York Center
07:53PM 40.1272 -73.7158 38° Northeast 469 540 16,900 -240 Descending New York Center
07:54PM 40.2392 -73.5928 40° Northeast 489 563 16,900  Level New York Center
07:55PM 40.3436 -73.4819 39° Northeast 485 558 16,900  Level New York Center
07:56PM 40.4653 -73.4186 22° Northeast 475 547 16,900 -780 Level New York Center
07:57PM 40.5811 -73.3803 14° North 384 442 15,300 -900 Descending New York Center
07:58PM 40.6833 -73.3500 13° North 322 371 15,000 -180 Descending New York TRACON
07:59PM 40.7667 -73.3167 17° North 325 374 15,000 -720 Level New York TRACON
08:00PM 40.8333 -73.2167 49° Northeast 361 415 13,600 -1,680 Descending New York TRACON
08:01PM 40.8833 -73.1167 56° Northeast 352 405 11,700 -1,500 Descending New York TRACON
08:02PM 40.9333 -73.0167 56° Northeast 286 329 10,700 -2,160 Descending New York TRACON
08:03PM 41.0000 -72.9833 21° North 283 326 7,400 -2,880 Descending New York TRACON
08:04PM 41.0333 -73.0667 298° West 259 298 5,000 -1,740 Descending New York TRACON
08:05PM 41.0500 -73.1500 285° West 264 304 4,000 -540 Descending New York TRACON
08:06PM 41.0833 -73.2333 298° West 261 300 4,000 -720 Level New York TRACON
08:07PM 41.1000 -73.3167 285° West 271 312 2,600 -960 Descending New York TRACON
08:08PM 41.0500 -73.4000 232° Southwest 263 303 2,100 -300 Descending New York TRACON
08:09PM 41.0167 -73.4667 236° Southwest 259 298 2,000 -60 Descending New York TRACON
08:10PM 40.9667 -73.5333 225° Southwest 202 232 2,000  Level New York TRACON
08:11PM 40.9333 -73.6000 237° Southwest 185 213 2,000  Level New York TRACON
08:12PM 40.9667 -73.6333 323° Northwest 135 155 2,000 -60 Level New York TRACON
08:13PM 41.0000 -73.6500 339° North 131 151 1,900 -480 Descending New York TRACON
08:14PM 41.0333 -73.6833 323° Northwest 124 143 1,100 -840 Descending New York TRACON